Time;durP1;ratioP1;P1;durP2;ratioP2;P2;SDS_P1;SDS_P2;PMS_P1;PMS_P2;Temp;Humidity;BMP_temperature;BMP_pressure;BME280_temperature;BME280_humidity;BME280_pressure;Samples;Min_cycle;Max_cycle;Signal;HPM_P1;HPM_P2
2023/05/13 00:00:17;;;;;;;0.00;0.00;;;;;;;;;;4972442;28;20043;-85
2023/05/13 00:02:43;;;;;;;0.00;0.00;;;;;;;;;;4972333;28;20126;-84
2023/05/13 00:05:09;;;;;;;0.00;0.00;;;;;;;;;;4956345;28;20049;-85
2023/05/13 00:07:35;;;;;;;0.10;0.10;;;;;;;;;;4972527;28;20118;-85
2023/05/13 00:10:01;;;;;;;0.00;0.00;;;;;;;;;;4972391;28;20046;-85
2023/05/13 00:12:27;;;;;;;0.00;0.00;;;;;;;;;;4972522;28;20128;-85
2023/05/13 00:14:53;;;;;;;0.00;0.00;;;;;;;;;;4956255;28;20047;-85
2023/05/13 00:17:19;;;;;;;0.00;0.00;;;;;;;;;;4972458;28;20049;-84
2023/05/13 00:19:46;;;;;;;0.00;0.00;;;;;;;;;;4972187;28;20046;-85
2023/05/13 00:22:12;;;;;;;0.00;0.00;;;;;;;;;;4972542;28;20046;-85
2023/05/13 00:24:38;;;;;;;0.00;0.00;;;;;;;;;;4972245;28;20560;-85
2023/05/13 00:27:04;;;;;;;0.00;0.00;;;;;;;;;;4973955;28;20126;-85
2023/05/13 00:29:30;;;;;;;0.95;0.05;;;;;;;;;;4956237;28;20129;-85
2023/05/13 00:31:56;;;;;;;0.00;0.00;;;;;;;;;;4972884;28;20182;-85
2023/05/13 00:34:23;;;;;;;0.10;0.00;;;;;;;;;;4956494;28;20046;-85
2023/05/13 00:36:49;;;;;;;0.00;0.00;;;;;;;;;;4956467;28;20062;-85
2023/05/13 00:39:15;;;;;;;0.00;0.00;;;;;;;;;;4973332;28;20394;-85
2023/05/13 00:41:41;;;;;;;0.00;0.00;;;;;;;;;;4972437;28;20043;-85
2023/05/13 00:44:07;;;;;;;0.00;0.00;;;;;;;;;;4973426;28;20545;-85
2023/05/13 00:46:33;;;;;;;0.10;0.00;;;;;;;;;;4972240;28;20042;-85
2023/05/13 00:49:00;;;;;;;0.00;0.00;;;;;;;;;;4956028;28;20074;-85
2023/05/13 00:51:26;;;;;;;0.00;0.00;;;;;;;;;;4972080;28;20043;-85
2023/05/13 00:53:52;;;;;;;0.00;0.00;;;;;;;;;;4972344;28;20042;-85
2023/05/13 00:56:20;;;;;;;0.00;0.00;;;;;;;;;;4955709;28;20047;-85
2023/05/13 00:58:46;;;;;;;0.00;0.00;;;;;;;;;;4972297;28;20336;-85
2023/05/13 01:01:12;;;;;;;0.00;0.00;;;;;;;;;;4972574;28;20038;-86
2023/05/13 01:03:44;;;;;;;0.00;0.00;;;;;;;;;;4975627;28;20423;-85
2023/05/13 01:06:13;;;;;;;0.00;0.00;;;;;;;;;;4975653;28;20490;-85
2023/05/13 01:08:39;;;;;;;0.20;0.00;;;;;;;;;;4975945;28;20074;-85
2023/05/13 01:11:08;;;;;;;0.00;0.00;;;;;;;;;;4959481;28;20399;-85
2023/05/13 01:13:38;;;;;;;0.00;0.00;;;;;;;;;;4959584;28;20046;-86
2023/05/13 01:16:12;;;;;;;0.00;0.00;;;;;;;;;;4959785;28;20035;-85
2023/05/13 01:18:44;;;;;;;0.00;0.00;;;;;;;;;;4975844;28;20125;-85
2023/05/13 01:21:11;;;;;;;0.10;0.10;;;;;;;;;;4975264;28;20041;-85
2023/05/13 01:23:37;;;;;;;0.00;0.00;;;;;;;;;;4975795;28;20387;-85
2023/05/13 01:26:03;;;;;;;0.00;0.00;;;;;;;;;;4975227;28;20049;-85
2023/05/13 01:28:30;;;;;;;0.00;0.00;;;;;;;;;;4975342;28;20047;-85
2023/05/13 01:30:56;;;;;;;0.00;0.00;;;;;;;;;;4976527;28;20126;-85
2023/05/13 01:33:23;;;;;;;0.00;0.00;;;;;;;;;;4975317;28;20124;-85
2023/05/13 01:35:49;;;;;;;0.05;0.00;;;;;;;;;;4975017;28;20529;-85
2023/05/13 01:38:15;;;;;;;0.00;0.00;;;;;;;;;;4975200;28;20038;-85
2023/05/13 01:40:42;;;;;;;0.00;0.00;;;;;;;;;;4974831;28;20042;-85
2023/05/13 01:43:08;;;;;;;0.00;0.00;;;;;;;;;;4975355;28;20748;-86
2023/05/13 01:45:34;;;;;;;0.00;0.00;;;;;;;;;;4974995;28;20043;-85
2023/05/13 01:48:00;;;;;;;0.00;0.00;;;;;;;;;;4958899;28;20038;-85
2023/05/13 01:50:26;;;;;;;0.43;0.00;;;;;;;;;;4975890;28;20069;-84
2023/05/13 01:52:52;;;;;;;0.00;0.00;;;;;;;;;;4974889;28;20125;-85
2023/05/13 01:55:18;;;;;;;0.00;0.00;;;;;;;;;;4974860;28;20138;-86
2023/05/13 01:57:44;;;;;;;0.00;0.00;;;;;;;;;;4974715;28;20146;-85
2023/05/13 02:00:11;;;;;;;0.00;0.00;;;;;;;;;;4974646;28;20074;-86
2023/05/13 02:02:37;;;;;;;0.00;0.00;;;;;;;;;;4974740;28;20039;-86
2023/05/13 02:05:03;;;;;;;0.00;0.00;;;;;;;;;;4974611;28;20058;-86
2023/05/13 02:07:29;;;;;;;0.00;0.00;;;;;;;;;;4975052;28;20051;-86
2023/05/13 02:09:58;;;;;;;0.00;0.00;;;;;;;;;;4974268;28;20450;-86
2023/05/13 02:12:25;;;;;;;0.00;0.00;;;;;;;;;;4958053;28;20293;-86
2023/05/13 02:14:51;;;;;;;0.00;0.00;;;;;;;;;;4974350;28;20190;-86
2023/05/13 02:17:17;;;;;;;0.00;0.00;;;;;;;;;;4974492;28;20515;-85
2023/05/13 02:19:43;;;;;;;0.00;0.00;;;;;;;;;;4974470;28;20442;-86
2023/05/13 02:22:09;;;;;;;0.00;0.00;;;;;;;;;;4974176;28;20043;-86
2023/05/13 02:24:38;;;;;;;0.00;0.00;;;;;;;;;;4974393;28;20348;-85
2023/05/13 02:27:05;;;;;;;0.00;0.00;;;;;;;;;;4958024;28;20046;-85
2023/05/13 02:29:31;;;;;;;0.00;0.00;;;;;;;;;;4974166;28;20540;-86
2023/05/13 02:31:57;;;;;;;0.00;0.00;;;;;;;;;;4974460;28;20046;-86
2023/05/13 02:34:23;;;;;;;0.00;0.00;;;;;;;;;;4974576;28;20047;-85
2023/05/13 02:36:49;;;;;;;0.00;0.00;;;;;;;;;;4973823;28;20517;-86
2023/05/13 02:39:15;;;;;;;0.00;0.00;;;;;;;;;;4974258;28;20153;-85
2023/05/13 02:41:41;;;;;;;0.00;0.00;;;;;;;;;;4974261;28;20390;-85
2023/05/13 02:44:07;;;;;;;0.00;0.00;;;;;;;;;;4974034;28;20039;-86
2023/05/13 02:46:33;;;;;;;0.00;0.00;;;;;;;;;;4973851;28;20159;-85
2023/05/13 02:48:59;;;;;;;0.00;0.00;;;;;;;;;;4974267;28;20053;-85
2023/05/13 02:51:25;;;;;;;0.00;0.00;;;;;;;;;;4973680;28;20064;-86
2023/05/13 02:53:51;;;;;;;0.20;0.05;;;;;;;;;;4973713;28;20371;-85
2023/05/13 02:56:17;;;;;;;0.60;0.00;;;;;;;;;;4957629;28;20042;-85
2023/05/13 02:58:43;;;;;;;0.10;0.10;;;;;;;;;;4974676;28;20046;-85
2023/05/13 03:01:09;;;;;;;0.00;0.00;;;;;;;;;;4957331;28;20106;-85
2023/05/13 03:03:35;;;;;;;0.00;0.00;;;;;;;;;;4973408;28;20062;-86
2023/05/13 03:06:01;;;;;;;0.00;0.00;;;;;;;;;;4973580;28;20047;-85
2023/05/13 03:08:27;;;;;;;0.00;0.00;;;;;;;;;;4973714;28;20039;-85
2023/05/13 03:10:54;;;;;;;0.00;0.00;;;;;;;;;;4973308;28;20553;-85
2023/05/13 03:13:20;;;;;;;0.20;0.17;;;;;;;;;;4973721;28;20109;-86
2023/05/13 03:15:46;;;;;;;0.00;0.00;;;;;;;;;;4973201;28;20129;-86
2023/05/13 03:18:12;;;;;;;0.00;0.00;;;;;;;;;;4973451;28;20139;-86
2023/05/13 03:20:39;;;;;;;0.00;0.00;;;;;;;;;;4973107;28;20053;-85
2023/05/13 03:23:05;;;;;;;0.00;0.00;;;;;;;;;;4972953;28;20121;-86
2023/05/13 03:25:31;;;;;;;0.00;0.00;;;;;;;;;;4973908;28;20125;-85
2023/05/13 03:27:57;;;;;;;0.00;0.00;;;;;;;;;;4972997;28;20058;-85
2023/05/13 03:30:23;;;;;;;0.00;0.00;;;;;;;;;;4973212;28;20050;-85
2023/05/13 03:32:49;;;;;;;0.00;0.00;;;;;;;;;;4974007;28;20435;-85
2023/05/13 03:35:15;;;;;;;0.00;0.00;;;;;;;;;;4972981;28;20121;-85
2023/05/13 03:37:41;;;;;;;0.00;0.00;;;;;;;;;;4972941;28;20466;-85
2023/05/13 03:40:07;;;;;;;0.00;0.00;;;;;;;;;;4973194;28;20063;-85
2023/05/13 03:42:33;;;;;;;0.00;0.00;;;;;;;;;;4972939;28;20039;-85
2023/05/13 03:44:59;;;;;;;0.00;0.00;;;;;;;;;;4972935;28;20126;-85
2023/05/13 03:47:25;;;;;;;0.00;0.00;;;;;;;;;;4972887;28;20414;-85
2023/05/13 03:49:51;;;;;;;0.00;0.00;;;;;;;;;;4956932;28;20363;-86
2023/05/13 03:52:17;;;;;;;0.00;0.00;;;;;;;;;;4972501;28;20057;-86
2023/05/13 03:54:43;;;;;;;0.00;0.00;;;;;;;;;;4972782;28;20046;-86
2023/05/13 03:57:09;;;;;;;0.05;0.05;;;;;;;;;;4972501;28;20494;-86
2023/05/13 03:59:35;;;;;;;0.00;0.00;;;;;;;;;;4973667;28;20054;-85
2023/05/13 04:02:01;;;;;;;0.00;0.00;;;;;;;;;;4972365;28;20045;-85
2023/05/13 04:04:27;;;;;;;0.10;0.00;;;;;;;;;;4973697;28;20050;-85
2023/05/13 04:06:53;;;;;;;0.00;0.00;;;;;;;;;;4956253;28;20399;-86
2023/05/13 04:09:19;;;;;;;0.08;0.00;;;;;;;;;;4973703;28;20038;-85
2023/05/13 04:11:45;;;;;;;0.00;0.00;;;;;;;;;;4972453;28;20053;-85
2023/05/13 04:14:11;;;;;;;0.00;0.00;;;;;;;;;;4972593;28;20050;-85
2023/05/13 04:16:39;;;;;;;0.00;0.00;;;;;;;;;;4956168;28;20137;-85
2023/05/13 04:19:05;;;;;;;0.00;0.00;;;;;;;;;;4972203;28;20098;-85
2023/05/13 04:21:31;;;;;;;0.00;0.00;;;;;;;;;;4972300;28;20042;-85
2023/05/13 04:23:57;;;;;;;0.00;0.00;;;;;;;;;;4972651;28;20045;-85
2023/05/13 04:26:24;;;;;;;0.00;0.00;;;;;;;;;;4972305;28;20479;-85
2023/05/13 04:28:50;;;;;;;0.00;0.00;;;;;;;;;;4972604;28;20047;-85
2023/05/13 04:31:16;;;;;;;0.00;0.00;;;;;;;;;;4972317;28;20050;-85
2023/05/13 04:33:44;;;;;;;0.00;0.00;;;;;;;;;;4972741;28;20042;-85
2023/05/13 04:36:10;;;;;;;0.00;0.00;;;;;;;;;;4975000;28;20494;-86
2023/05/13 04:38:36;;;;;;;0.00;0.00;;;;;;;;;;4976045;28;20054;-86
2023/05/13 04:41:02;;;;;;;0.00;0.00;;;;;;;;;;4976374;28;20390;-86
2023/05/13 04:43:28;;;;;;;0.00;0.00;;;;;;;;;;4976076;28;20490;-86
2023/05/13 04:45:54;;;;;;;0.00;0.00;;;;;;;;;;4976011;28;20039;-86
2023/05/13 04:48:20;;;;;;;0.00;0.00;;;;;;;;;;4976239;28;20047;-85
2023/05/13 04:50:46;;;;;;;0.00;0.00;;;;;;;;;;4975822;28;20589;-86
2023/05/13 04:53:12;;;;;;;0.00;0.00;;;;;;;;;;4976075;28;20043;-85
2023/05/13 04:55:38;;;;;;;0.00;0.00;;;;;;;;;;4975805;28;20050;-85
2023/05/13 04:58:05;;;;;;;0.00;0.00;;;;;;;;;;4959394;28;20049;-85
2023/05/13 05:00:31;;;;;;;0.00;0.00;;;;;;;;;;4959715;28;20043;-85
2023/05/13 05:02:57;;;;;;;0.00;0.00;;;;;;;;;;4976827;28;20061;-85
2023/05/13 05:05:23;;;;;;;0.00;0.00;;;;;;;;;;4976508;28;20121;-85
2023/05/13 05:07:49;;;;;;;0.00;0.00;;;;;;;;;;4975724;28;20406;-85
2023/05/13 05:10:15;;;;;;;0.00;0.00;;;;;;;;;;4959504;28;20074;-85
2023/05/13 05:12:41;;;;;;;0.00;0.00;;;;;;;;;;4975629;28;20043;-85
2023/05/13 05:15:14;;;;;;;0.00;0.00;;;;;;;;;;4975929;28;20055;-84
2023/05/13 05:17:43;;;;;;;0.00;0.00;;;;;;;;;;4959153;28;20478;-85
2023/05/13 05:20:10;;;;;;;0.00;0.00;;;;;;;;;;4977115;28;20043;-86
2023/05/13 05:22:40;;;;;;;0.00;0.00;;;;;;;;;;4975578;28;20193;-85
2023/05/13 05:25:07;;;;;;;0.00;0.00;;;;;;;;;;4975484;28;20043;-85
2023/05/13 05:27:33;;;;;;;0.00;0.00;;;;;;;;;;4976737;28;20038;-84
2023/05/13 05:29:59;;;;;;;0.00;0.00;;;;;;;;;;4975173;28;20525;-85
2023/05/13 05:32:25;;;;;;;0.00;0.00;;;;;;;;;;4975040;28;20047;-85
2023/05/13 05:34:51;;;;;;;0.00;0.00;;;;;;;;;;4959209;28;20058;-85
2023/05/13 05:37:17;;;;;;;0.00;0.00;;;;;;;;;;4975262;28;20051;-85
2023/05/13 05:39:43;;;;;;;0.00;0.00;;;;;;;;;;4975019;28;20504;-86
2023/05/13 05:42:09;;;;;;;0.00;0.00;;;;;;;;;;4959048;28;20109;-85
2023/05/13 05:44:35;;;;;;;0.00;0.00;;;;;;;;;;4975049;28;20074;-86
2023/05/13 05:47:01;;;;;;;0.00;0.00;;;;;;;;;;4974179;28;20133;-85
2023/05/13 05:49:27;;;;;;;0.00;0.00;;;;;;;;;;4959654;28;20085;-84
2023/05/13 05:51:53;;;;;;;0.00;0.00;;;;;;;;;;4975560;28;20078;-84
2023/05/13 05:54:19;;;;;;;0.00;0.00;;;;;;;;;;4975439;28;20047;-85
2023/05/13 05:56:44;;;;;;;0.00;0.00;;;;;;;;;;4975370;28;20049;-86
2023/05/13 05:59:10;;;;;;;0.05;0.00;;;;;;;;;;4975040;28;20053;-85
2023/05/13 06:01:36;;;;;;;0.00;0.00;;;;;;;;;;4958770;28;20487;-84
2023/05/13 06:04:04;;;;;;;0.00;0.00;;;;;;;;;;4974614;28;20098;-85
2023/05/13 06:06:31;;;;;;;0.00;0.00;;;;;;;;;;4974656;28;20050;-85
2023/05/13 06:08:57;;;;;;;0.00;0.00;;;;;;;;;;4974976;28;20137;-85
2023/05/13 06:11:23;;;;;;;0.00;0.00;;;;;;;;;;4974805;28;20074;-84
2023/05/13 06:13:50;;;;;;;0.00;0.00;;;;;;;;;;4974748;28;20047;-94
2023/05/13 06:16:16;;;;;;;0.00;0.00;;;;;;;;;;4975085;28;20093;-84
2023/05/13 06:18:42;;;;;;;0.00;0.00;;;;;;;;;;4974324;28;20043;-84
2023/05/13 06:21:08;;;;;;;0.00;0.00;;;;;;;;;;4958233;28;20035;-83
2023/05/13 06:23:34;;;;;;;0.00;0.00;;;;;;;;;;4974500;28;20504;-84
2023/05/13 06:26:00;;;;;;;0.00;0.00;;;;;;;;;;4974307;28;20109;-84
2023/05/13 06:28:26;;;;;;;0.00;0.00;;;;;;;;;;4974453;28;20051;-84
2023/05/13 06:30:53;;;;;;;0.00;0.00;;;;;;;;;;4958225;28;20172;-84
2023/05/13 06:33:19;;;;;;;0.00;0.00;;;;;;;;;;4974052;28;20112;-84
2023/05/13 06:35:48;;;;;;;0.00;0.00;;;;;;;;;;4974228;28;20053;-84
2023/05/13 06:38:16;;;;;;;0.10;0.00;;;;;;;;;;4973802;28;20398;-84
2023/05/13 06:40:42;;;;;;;0.00;0.00;;;;;;;;;;4973889;28;20124;-84
2023/05/13 06:43:09;;;;;;;0.00;0.00;;;;;;;;;;4974251;28;20061;-84
2023/05/13 06:45:35;;;;;;;0.00;0.00;;;;;;;;;;4974243;28;20065;-84
2023/05/13 06:48:01;;;;;;;0.00;0.00;;;;;;;;;;4973778;28;20538;-88
2023/05/13 06:50:27;;;;;;;0.00;0.00;;;;;;;;;;4974216;28;20042;-88
2023/05/13 06:52:54;;;;;;;0.00;0.00;;;;;;;;;;4958050;28;20406;-85
2023/05/13 06:55:20;;;;;;;0.00;0.00;;;;;;;;;;4974098;28;20085;-84
2023/05/13 06:57:46;;;;;;;0.00;0.00;;;;;;;;;;4973395;28;20054;-83
2023/05/13 07:00:13;;;;;;;0.00;0.00;;;;;;;;;;4973825;28;20046;-84
2023/05/13 07:02:39;;;;;;;0.00;0.00;;;;;;;;;;4973934;28;20070;-84
2023/05/13 07:05:05;;;;;;;0.00;0.00;;;;;;;;;;4974880;28;20053;-84
2023/05/13 07:07:31;;;;;;;0.00;0.00;;;;;;;;;;4973659;28;20047;-84
2023/05/13 07:09:57;;;;;;;0.00;0.00;;;;;;;;;;4973498;28;20177;-83
2023/05/13 07:12:23;;;;;;;0.00;0.00;;;;;;;;;;4957194;28;20454;-87
2023/05/13 07:14:49;;;;;;;0.00;0.00;;;;;;;;;;4973009;28;20101;-83
2023/05/13 07:17:16;;;;;;;0.00;0.00;;;;;;;;;;4973650;28;20058;-84
2023/05/13 07:19:42;;;;;;;0.00;0.00;;;;;;;;;;4972991;28;20042;-83
2023/05/13 07:22:08;;;;;;;0.00;0.00;;;;;;;;;;4973180;28;20050;-83
2023/05/13 07:24:34;;;;;;;0.00;0.00;;;;;;;;;;4972763;28;20245;-83
2023/05/13 07:27:02;;;;;;;0.00;0.00;;;;;;;;;;4972922;28;20051;-83
2023/05/13 07:29:29;;;;;;;0.00;0.00;;;;;;;;;;4972843;28;20105;-88
2023/05/13 07:31:55;;;;;;;0.00;0.00;;;;;;;;;;4972868;28;20106;-84
2023/05/13 07:34:21;;;;;;;0.00;0.00;;;;;;;;;;4972802;28;20158;-84
2023/05/13 07:36:47;;;;;;;0.00;0.00;;;;;;;;;;4972549;28;20038;-85
2023/05/13 07:39:13;;;;;;;0.00;0.00;;;;;;;;;;4972394;28;20451;-84
2023/05/13 07:41:39;;;;;;;0.00;0.00;;;;;;;;;;4972998;28;20134;-84
2023/05/13 07:44:10;;;;;;;0.00;0.00;;;;;;;;;;4973937;28;20043;-84
2023/05/13 07:46:36;;;;;;;0.00;0.00;;;;;;;;;;4974146;28;20085;-84
2023/05/13 07:49:05;;;;;;;0.00;0.00;;;;;;;;;;4972500;28;20434;-83
2023/05/13 07:51:31;;;;;;;0.00;0.00;;;;;;;;;;4956411;28;20038;-83
2023/05/13 07:53:57;;;;;;;0.20;0.13;;;;;;;;;;4972205;28;20050;-84
2023/05/13 07:56:23;;;;;;;0.00;0.00;;;;;;;;;;4972319;28;20496;-85
2023/05/13 07:58:49;;;;;;;0.00;0.00;;;;;;;;;;4972026;28;20097;-85
2023/05/13 08:01:15;;;;;;;0.30;0.30;;;;;;;;;;4972191;28;20039;-85
2023/05/13 08:03:41;;;;;;;0.00;0.00;;;;;;;;;;4973288;28;20490;-84
2023/05/13 08:06:07;;;;;;;0.00;0.00;;;;;;;;;;4972198;28;20062;-84
2023/05/13 08:08:33;;;;;;;0.00;0.00;;;;;;;;;;4972373;28;20371;-84
2023/05/13 08:10:59;;;;;;;2.35;0.25;;;;;;;;;;4971864;28;20113;-85
2023/05/13 08:13:25;;;;;;;0.00;0.00;;;;;;;;;;4971851;28;20054;-85
2023/05/13 08:15:51;;;;;;;0.00;0.00;;;;;;;;;;4972557;28;20043;-84
2023/05/13 08:18:17;;;;;;;0.00;0.00;;;;;;;;;;4956186;28;20046;-85
2023/05/13 08:20:43;;;;;;;0.00;0.00;;;;;;;;;;4971793;28;20066;-86
2023/05/13 08:23:09;;;;;;;0.00;0.00;;;;;;;;;;4972082;28;20431;-84
2023/05/13 08:25:35;;;;;;;0.00;0.00;;;;;;;;;;4972050;28;20138;-85
2023/05/13 08:28:02;;;;;;;0.00;0.00;;;;;;;;;;4972223;28;20053;-86
2023/05/13 08:30:28;;;;;;;0.00;0.00;;;;;;;;;;4955805;28;20043;-85
2023/05/13 08:32:54;;;;;;;0.00;0.00;;;;;;;;;;4972238;28;20467;-85
2023/05/13 08:35:20;;;;;;;0.00;0.00;;;;;;;;;;4955818;28;20038;-84
2023/05/13 08:37:46;;;;;;;0.00;0.00;;;;;;;;;;4972175;28;20042;-84
2023/05/13 08:40:14;;;;;;;0.00;0.00;;;;;;;;;;4971910;28;20478;-84
2023/05/13 08:42:40;;;;;;;0.00;0.00;;;;;;;;;;4956072;28;20077;-85
2023/05/13 08:45:08;;;;;;;0.00;0.00;;;;;;;;;;4971767;28;20035;-85
2023/05/13 08:47:33;;;;;;;0.00;0.00;;;;;;;;;;4972281;28;20051;-84
2023/05/13 08:50:00;;;;;;;0.00;0.00;;;;;;;;;;4972018;28;20049;-83
2023/05/13 08:52:26;;;;;;;0.00;0.00;;;;;;;;;;4972179;28;20050;-84
2023/05/13 08:54:53;;;;;;;0.00;0.00;;;;;;;;;;4971809;28;20074;-84
2023/05/13 08:57:19;;;;;;;0.00;0.00;;;;;;;;;;4971947;28;20055;-86
2023/05/13 08:59:45;;;;;;;0.00;0.00;;;;;;;;;;4971578;28;20066;-85
2023/05/13 09:02:11;;;;;;;0.05;0.00;;;;;;;;;;4971790;28;20038;-86
2023/05/13 09:04:40;;;;;;;0.00;0.00;;;;;;;;;;4971620;28;20410;-85
2023/05/13 09:07:06;;;;;;;0.00;0.00;;;;;;;;;;4971839;28;20046;-85
2023/05/13 09:09:32;;;;;;;0.00;0.00;;;;;;;;;;4972742;28;20446;-85
2023/05/13 09:11:58;;;;;;;0.00;0.00;;;;;;;;;;4971919;28;20199;-85
2023/05/13 09:14:33;;;;;;;0.00;0.00;;;;;;;;;;4955610;28;20098;-85
2023/05/13 09:17:00;;;;;;;0.00;0.00;;;;;;;;;;4972962;28;20046;-84
2023/05/13 09:19:26;;;;;;;0.00;0.00;;;;;;;;;;4972024;28;20050;-83
2023/05/13 09:21:53;;;;;;;0.25;0.00;;;;;;;;;;4973538;28;20039;-83
2023/05/13 09:24:20;;;;;;;0.00;0.00;;;;;;;;;;4976427;28;20051;-83
2023/05/13 09:26:47;;;;;;;0.00;0.00;;;;;;;;;;4976642;28;20042;-83
2023/05/13 09:29:28;;;;;;;0.00;0.00;;;;;;;;;;4975057;28;20129;-81
2023/05/13 09:31:55;;;;;;;0.00;0.00;;;;;;;;;;4959276;28;20081;-82
2023/05/13 09:34:25;;;;;;;0.00;0.00;;;;;;;;;;4975090;28;20046;-82
2023/05/13 09:36:58;;;;;;;0.20;0.00;;;;;;;;;;4975345;28;20084;-82
2023/05/13 09:39:24;;;;;;;0.00;0.00;;;;;;;;;;4976199;28;20043;-82
2023/05/13 09:41:51;;;;;;;0.00;0.00;;;;;;;;;;4975021;28;20043;-82
2023/05/13 09:44:17;;;;;;;0.00;0.00;;;;;;;;;;4974812;28;20043;-83
2023/05/13 09:46:43;;;;;;;0.00;0.00;;;;;;;;;;4974657;28;20053;-82
2023/05/13 09:49:09;;;;;;;0.00;0.00;;;;;;;;;;4974809;28;20402;-82
2023/05/13 09:51:35;;;;;;;0.00;0.00;;;;;;;;;;4974772;28;20078;-82
2023/05/13 09:54:05;;;;;;;0.00;0.00;;;;;;;;;;4974983;28;20085;-82
2023/05/13 09:56:32;;;;;;;0.00;0.00;;;;;;;;;;4958422;28;20086;-83
2023/05/13 09:58:58;;;;;;;0.00;0.00;;;;;;;;;;4974783;28;20130;-83
2023/05/13 10:01:27;;;;;;;0.10;0.00;;;;;;;;;;4974627;28;20125;-83
2023/05/13 10:03:54;;;;;;;0.00;0.00;;;;;;;;;;4976033;28;20086;-82
2023/05/13 10:06:22;;;;;;;0.00;0.00;;;;;;;;;;4975703;28;20065;-82
2023/05/13 10:08:52;;;;;;;0.00;0.00;;;;;;;;;;4974833;28;20043;-82
2023/05/13 10:11:18;;;;;;;0.00;0.00;;;;;;;;;;4974372;28;20047;-81
2023/05/13 10:13:49;;;;;;;0.00;0.00;;;;;;;;;;4974585;28;20050;-83
2023/05/13 10:16:17;;;;;;;0.00;0.00;;;;;;;;;;4974648;28;20050;-83
2023/05/13 10:18:43;;;;;;;0.00;0.00;;;;;;;;;;4958201;28;20047;-81
2023/05/13 10:21:09;;;;;;;0.00;0.00;;;;;;;;;;4975419;28;20039;-82
2023/05/13 10:23:35;;;;;;;0.00;0.00;;;;;;;;;;4975672;28;20046;-82
2023/05/13 10:26:01;;;;;;;0.00;0.00;;;;;;;;;;4975583;28;20090;-82
2023/05/13 10:28:28;;;;;;;0.00;0.00;;;;;;;;;;4974405;28;20046;-83
2023/05/13 10:30:54;;;;;;;0.00;0.00;;;;;;;;;;4958327;28;20051;-82
2023/05/13 10:33:20;;;;;;;0.00;0.00;;;;;;;;;;4975292;28;20061;-82
2023/05/13 10:36:05;;;;;;;0.00;0.00;;;;;;;;;;4975314;28;20058;-82
2023/05/13 10:38:43;;;;;;;0.00;0.00;;;;;;;;;;4958013;28;20042;-82
2023/05/13 10:41:18;;;;;;;0.00;0.00;;;;;;;;;;4974238;28;20420;-81
2023/05/13 10:43:44;;;;;;;;;;;;;;;;;;4974776;28;20372;-82
2023/05/13 10:46:13;;;;;;;0.00;0.00;;;;;;;;;;4975567;28;19925;-81
2023/05/13 10:48:46;;;;;;;0.00;0.00;;;;;;;;;;4958514;28;20089;-81
2023/05/13 10:51:16;;;;;;;0.00;0.00;;;;;;;;;;4958496;28;20050;-82
2023/05/13 10:53:49;;;;;;;0.00;0.00;;;;;;;;;;4974235;28;20085;-81
2023/05/13 10:56:16;;;;;;;0.08;0.03;;;;;;;;;;4973871;28;20510;-82
2023/05/13 10:58:42;;;;;;;0.00;0.00;;;;;;;;;;4975119;28;20399;-84
2023/05/13 11:01:13;;;;;;;0.00;0.00;;;;;;;;;;4973568;28;20173;-83
2023/05/13 11:03:39;;;;;;;0.00;0.00;;;;;;;;;;4974714;28;20073;-83
2023/05/13 11:06:15;;;;;;;0.00;0.00;;;;;;;;;;4973428;28;20051;-85
2023/05/13 11:08:45;;;;;;;0.00;0.00;;;;;;;;;;4974910;28;20081;-83
2023/05/13 11:11:23;;;;;;;0.00;0.00;;;;;;;;;;4973540;28;20050;-83
2023/05/13 11:13:50;;;;;;;0.00;0.00;;;;;;;;;;4975426;28;20127;-82
2023/05/13 11:16:16;;;;;;;0.00;0.00;;;;;;;;;;4974183;28;20047;-83
2023/05/13 11:18:42;;;;;;;0.00;0.00;;;;;;;;;;4957547;28;20051;-83
2023/05/13 11:21:08;;;;;;;0.00;0.00;;;;;;;;;;4973126;28;20042;-83
2023/05/13 11:23:50;;;;;;;0.00;0.00;;;;;;;;;;4974893;28;20045;-83
2023/05/13 11:26:16;;;;;;;0.00;0.00;;;;;;;;;;4973296;28;20050;-83
2023/05/13 11:29:01;;;;;;;0.00;0.00;;;;;;;;;;4973671;28;20046;-83
2023/05/13 11:31:28;;;;;;;0.00;0.00;;;;;;;;;;4973228;28;20486;-83
2023/05/13 11:34:05;;;;;;;0.00;0.00;;;;;;;;;;4973228;28;20043;-83
2023/05/13 11:36:32;;;;;;;0.00;0.00;;;;;;;;;;4973165;28;20050;-83
2023/05/13 11:39:05;;;;;;;0.00;0.00;;;;;;;;;;4972889;28;20105;-84
2023/05/13 11:41:35;;;;;;;0.00;0.00;;;;;;;;;;4972626;28;20042;-83
2023/05/13 11:44:02;;;;;;;0.15;0.08;;;;;;;;;;4972875;28;20038;-82
2023/05/13 11:46:28;;;;;;;0.00;0.00;;;;;;;;;;4973554;28;20053;-82
2023/05/13 11:48:54;;;;;;;0.00;0.00;;;;;;;;;;4972919;28;20154;-82
2023/05/13 11:51:20;;;;;;;0.00;0.00;;;;;;;;;;4972663;28;20521;-82
2023/05/13 11:53:46;;;;;;;0.00;0.00;;;;;;;;;;4972853;28;20050;-83
2023/05/13 11:56:12;;;;;;;0.00;0.00;;;;;;;;;;4956502;28;20051;-82
2023/05/13 11:58:38;;;;;;;0.00;0.00;;;;;;;;;;4956504;28;20042;-82
2023/05/13 12:01:06;;;;;;;0.00;0.00;;;;;;;;;;4973838;28;20631;-82
2023/05/13 12:03:32;;;;;;;0.00;0.00;;;;;;;;;;4956497;28;20171;-83
2023/05/13 12:06:01;;;;;;;0.00;0.00;;;;;;;;;;4972519;28;20053;-83
2023/05/13 12:08:28;;;;;;;0.00;0.00;;;;;;;;;;4972947;28;20466;-82
2023/05/13 12:10:55;;;;;;;0.00;0.00;;;;;;;;;;4972182;28;20078;-82
2023/05/13 12:13:21;;;;;;;0.00;0.00;;;;;;;;;;4972618;28;20039;-82
2023/05/13 12:15:48;;;;;;;0.00;0.00;;;;;;;;;;4972229;28;20047;-83
2023/05/13 12:18:14;;;;;;;0.00;0.00;;;;;;;;;;4972634;28;20038;-86
2023/05/13 12:20:40;;;;;;;0.00;0.00;;;;;;;;;;4972635;28;20046;-83
2023/05/13 12:23:06;;;;;;;0.00;0.00;;;;;;;;;;4972353;28;20122;-82
2023/05/13 12:25:45;;;;;;;0.00;0.00;;;;;;;;;;4972375;28;20117;-83
2023/05/13 12:28:18;;;;;;;0.05;0.03;;;;;;;;;;4972347;28;20121;-83
2023/05/13 12:30:50;;;;;;;0.00;0.00;;;;;;;;;;4972132;28;20042;-83
2023/05/13 12:33:37;;;;;;;0.00;0.00;;;;;;;;;;4972167;28;20509;-83
2023/05/13 12:36:26;;;;;;;0.00;0.00;;;;;;;;;;4959250;28;20085;-83
2023/05/13 12:38:53;;;;;;;0.00;0.00;;;;;;;;;;4972433;28;20053;-83
2023/05/13 12:41:21;;;;;;;0.00;0.00;;;;;;;;;;4972187;28;20526;-82
2023/05/13 12:43:47;;;;;;;0.10;0.00;;;;;;;;;;4973646;28;20038;-82
2023/05/13 12:46:13;;;;;;;0.00;0.00;;;;;;;;;;4972416;28;20045;-82
2023/05/13 12:48:39;;;;;;;0.00;0.00;;;;;;;;;;4972477;28;20129;-83
2023/05/13 12:51:05;;;;;;;0.00;0.00;;;;;;;;;;4972106;28;20046;-83
2023/05/13 12:53:31;;;;;;;0.20;0.10;;;;;;;;;;4971909;28;20054;-83
2023/05/13 12:55:57;;;;;;;0.00;0.00;;;;;;;;;;4972791;28;20130;-82
2023/05/13 12:58:23;;;;;;;0.00;0.00;;;;;;;;;;4975598;28;20429;-82
2023/05/13 13:00:49;;;;;;;0.00;0.00;;;;;;;;;;4976112;28;20134;-83
2023/05/13 13:03:15;;;;;;;0.00;0.00;;;;;;;;;;4975714;28;20137;-82
2023/05/13 13:05:41;;;;;;;0.00;0.00;;;;;;;;;;4975732;28;20415;-83
2023/05/13 13:08:07;;;;;;;0.00;0.00;;;;;;;;;;4975440;28;20042;-83
2023/05/13 13:10:33;;;;;;;0.00;0.00;;;;;;;;;;4959273;28;20474;-82
2023/05/13 13:13:00;;;;;;;0.00;0.00;;;;;;;;;;4975232;28;20505;-83
2023/05/13 13:15:26;;;;;;;0.00;0.00;;;;;;;;;;4975668;28;20046;-83
2023/05/13 13:17:52;;;;;;;0.00;0.00;;;;;;;;;;4975397;28;20047;-85
2023/05/13 13:20:18;;;;;;;0.00;0.00;;;;;;;;;;4976792;28;20475;-83
2023/05/13 13:22:44;;;;;;;0.00;0.00;;;;;;;;;;4975099;28;20039;-83
2023/05/13 13:25:10;;;;;;;0.00;0.00;;;;;;;;;;4976807;28;20122;-82
2023/05/13 13:27:36;;;;;;;0.00;0.00;;;;;;;;;;4975213;28;20043;-83
2023/05/13 13:30:02;;;;;;;0.35;0.30;;;;;;;;;;4975361;28;20057;-82
2023/05/13 13:32:28;;;;;;;0.00;0.00;;;;;;;;;;4975757;28;20336;-83
2023/05/13 13:34:54;;;;;;;0.00;0.00;;;;;;;;;;4975643;28;20046;-83
2023/05/13 13:37:20;;;;;;;0.00;0.00;;;;;;;;;;4974872;28;20038;-82
2023/05/13 13:39:46;;;;;;;0.00;0.00;;;;;;;;;;4976510;28;20117;-84
2023/05/13 13:42:12;;;;;;;0.00;0.00;;;;;;;;;;4974833;28;20050;-82
2023/05/13 13:44:38;;;;;;;0.15;0.08;;;;;;;;;;4975623;28;20125;-83
2023/05/13 13:47:04;;;;;;;0.00;0.00;;;;;;;;;;4976018;28;20581;-82
2023/05/13 13:49:30;;;;;;;0.00;0.00;;;;;;;;;;4974934;28;20137;-82
2023/05/13 13:51:56;;;;;;;0.00;0.00;;;;;;;;;;4974584;28;20105;-83
2023/05/13 13:54:22;;;;;;;0.00;0.00;;;;;;;;;;4975022;28;20085;-83
2023/05/13 13:56:48;;;;;;;0.00;0.00;;;;;;;;;;4974565;28;20050;-83
2023/05/13 13:59:14;;;;;;;0.00;0.00;;;;;;;;;;4976469;28;20039;-83
2023/05/13 14:01:42;;;;;;;0.00;0.00;;;;;;;;;;4959122;28;20050;-86
2023/05/13 14:04:12;;;;;;;0.00;0.00;;;;;;;;;;4976555;28;20074;-83
2023/05/13 14:06:38;;;;;;;0.00;0.00;;;;;;;;;;4975198;28;20046;-83
2023/05/13 14:09:05;;;;;;;0.00;0.00;;;;;;;;;;4975230;28;20058;-83
2023/05/13 14:11:31;;;;;;;0.00;0.00;;;;;;;;;;4977086;28;20129;-82
2023/05/13 14:13:57;;;;;;;0.00;0.00;;;;;;;;;;4974670;28;20058;-83
2023/05/13 14:16:23;;;;;;;0.00;0.00;;;;;;;;;;4974911;28;20050;-83
2023/05/13 14:18:49;;;;;;;0.00;0.00;;;;;;;;;;4974189;28;20050;-83
2023/05/13 14:21:15;;;;;;;0.00;0.00;;;;;;;;;;4976292;28;20035;-83
2023/05/13 14:23:42;;;;;;;0.00;0.00;;;;;;;;;;4976378;28;20090;-84
2023/05/13 14:26:09;;;;;;;0.00;0.00;;;;;;;;;;4974551;28;20451;-83
2023/05/13 14:28:35;;;;;;;0.00;0.00;;;;;;;;;;4958107;28;20047;-83
2023/05/13 14:31:01;;;;;;;0.00;0.00;;;;;;;;;;4974484;28;20393;-83
2023/05/13 14:33:27;;;;;;;0.00;0.00;;;;;;;;;;4975172;28;20074;-84
2023/05/13 14:35:53;;;;;;;0.00;0.00;;;;;;;;;;4973976;28;20501;-83
2023/05/13 14:38:19;;;;;;;0.00;0.00;;;;;;;;;;4974268;28;20093;-83
2023/05/13 14:40:46;;;;;;;0.00;0.00;;;;;;;;;;4974119;28;20046;-82